createdAt,value
2023-03-19T00:02:08.994Z,2.90
2023-03-19T00:04:45.604Z,2.88
2023-03-19T00:07:13.322Z,3.08
2023-03-19T00:09:40.729Z,3.10
2023-03-19T00:12:09.967Z,3.30
2023-03-19T00:14:36.765Z,3.38
2023-03-19T00:17:06.796Z,2.72
2023-03-19T00:19:33.495Z,2.50
2023-03-19T00:22:02.051Z,2.25
2023-03-19T00:24:29.086Z,2.30
2023-03-19T00:26:55.978Z,2.25
2023-03-19T00:29:23.417Z,2.00
2023-03-19T00:31:51.678Z,1.83
2023-03-19T00:34:19.381Z,2.40
2023-03-19T00:36:47.039Z,2.95
2023-03-19T00:39:13.809Z,2.65
2023-03-19T00:41:40.960Z,2.60
2023-03-19T00:44:10.809Z,2.53
2023-03-19T00:46:37.483Z,2.50
2023-03-19T00:49:04.428Z,2.17
2023-03-19T00:51:33.907Z,2.10
2023-03-19T00:54:00.762Z,2.10
2023-03-19T00:56:27.477Z,2.10
2023-03-19T00:58:56.227Z,1.95
2023-03-19T01:01:23.127Z,1.92
2023-03-19T01:03:49.901Z,1.83
2023-03-19T01:06:17.656Z,1.77
2023-03-19T01:08:44.474Z,2.17
2023-03-19T01:11:15.026Z,1.90
2023-03-19T01:13:42.369Z,2.17
2023-03-19T01:16:10.031Z,1.73
2023-03-19T01:18:37.904Z,1.90
2023-03-19T01:21:05.413Z,2.47
2023-03-19T01:23:32.133Z,2.05
2023-03-19T01:25:58.809Z,1.77
2023-03-19T01:28:27.121Z,1.65
2023-03-19T01:30:57.923Z,2.35
2023-03-19T01:33:25.794Z,1.80
2023-03-19T01:35:54.024Z,2.00
2023-03-19T01:38:20.697Z,2.05
2023-03-19T01:40:48.580Z,2.17
2023-03-19T01:43:21.054Z,2.40
2023-03-19T01:45:52.221Z,2.38
2023-03-19T01:48:41.012Z,2.30
2023-03-19T01:51:10.635Z,2.05
2023-03-19T01:53:39.443Z,1.92
2023-03-19T01:56:32.680Z,2.00
2023-03-19T01:59:06.669Z,2.42
2023-03-19T02:01:38.473Z,2.33
2023-03-19T02:04:06.198Z,2.15
2023-03-19T02:06:33.356Z,2.28
2023-03-19T02:09:03.575Z,2.33
2023-03-19T02:11:31.171Z,1.88
2023-03-19T02:13:58.311Z,2.03
2023-03-19T02:16:25.320Z,2.30
2023-03-19T02:18:53.445Z,1.85
2023-03-19T02:21:21.858Z,1.90
2023-03-19T02:24:08.714Z,1.73
2023-03-19T02:26:36.491Z,1.90
2023-03-19T02:29:04.253Z,1.73
2023-03-19T02:31:32.840Z,2.10
2023-03-19T02:34:24.622Z,1.50
2023-03-19T02:36:56.145Z,2.15
2023-03-19T02:39:34.653Z,2.20
2023-03-19T02:42:02.215Z,2.17
2023-03-19T02:44:30.256Z,1.42
2023-03-19T02:46:57.051Z,1.65
2023-03-19T02:49:24.717Z,1.85
2023-03-19T02:51:52.764Z,1.92
2023-03-19T02:54:19.904Z,1.90
2023-03-19T02:56:46.831Z,1.70
2023-03-19T02:59:13.567Z,1.77
2023-03-19T03:01:40.326Z,2.08
2023-03-19T03:04:08.200Z,1.60
2023-03-19T03:06:34.923Z,1.83
2023-03-19T03:09:01.719Z,1.60
2023-03-19T03:11:28.403Z,2.30
2023-03-19T03:13:56.441Z,1.70
2023-03-19T03:16:23.518Z,1.92
2023-03-19T03:18:52.157Z,1.85
2023-03-19T03:21:21.370Z,2.00
2023-03-19T03:23:48.698Z,1.52
2023-03-19T03:26:15.829Z,1.83
2023-03-19T03:28:43.430Z,1.52
2023-03-19T03:31:10.262Z,1.50
2023-03-19T03:33:37.530Z,1.50
2023-03-19T03:36:04.617Z,1.83
2023-03-19T03:38:32.841Z,1.80
2023-03-19T03:41:00.955Z,2.10
2023-03-19T03:43:27.727Z,1.77
2023-03-19T03:45:54.595Z,1.90
2023-03-19T03:48:21.979Z,1.63
2023-03-19T03:50:49.787Z,1.85
2023-03-19T03:53:16.979Z,1.70
2023-03-19T03:55:44.916Z,1.88
2023-03-19T03:58:13.135Z,1.70
2023-03-19T04:00:39.995Z,1.67
2023-03-19T04:03:07.224Z,1.80
2023-03-19T04:05:33.974Z,1.40
2023-03-19T04:08:01.316Z,1.60
2023-03-19T04:10:28.030Z,1.52
2023-03-19T04:12:54.852Z,1.65
2023-03-19T04:15:22.539Z,1.60
2023-03-19T04:17:49.246Z,1.70
2023-03-19T04:20:18.469Z,1.60
2023-03-19T04:22:46.150Z,1.40
2023-03-19T04:25:12.874Z,1.50
2023-03-19T04:27:39.559Z,1.67
2023-03-19T04:30:07.066Z,1.92
2023-03-19T04:32:35.620Z,1.77
2023-03-19T04:35:03.181Z,1.85
2023-03-19T04:37:30.392Z,1.70
2023-03-19T04:39:59.413Z,1.63
2023-03-19T04:42:26.109Z,1.80
2023-03-19T04:44:53.481Z,1.50
2023-03-19T04:47:21.076Z,1.63
2023-03-19T04:49:48.812Z,1.70
2023-03-19T04:52:15.528Z,1.63
2023-03-19T04:54:42.226Z,1.80
2023-03-19T04:57:10.235Z,1.55
2023-03-19T04:59:37.096Z,1.60
2023-03-19T05:02:04.067Z,1.42
2023-03-19T05:04:30.742Z,1.60
2023-03-19T05:06:58.213Z,1.70
2023-03-19T05:09:25.174Z,1.63
2023-03-19T05:11:52.137Z,1.55
2023-03-19T05:14:19.119Z,1.83
2023-03-19T05:16:45.841Z,1.58
2023-03-19T05:19:13.560Z,1.52
2023-03-19T05:21:44.176Z,1.50
2023-03-19T05:24:10.958Z,1.70
2023-03-19T05:26:38.076Z,1.40
2023-03-19T05:29:05.062Z,1.77
2023-03-19T05:31:34.074Z,1.60
2023-03-19T05:34:00.855Z,1.55
2023-03-19T05:36:28.253Z,1.35
2023-03-19T05:38:56.425Z,1.38
2023-03-19T05:41:23.638Z,1.83
2023-03-19T05:43:51.324Z,1.15
2023-03-19T05:46:18.038Z,1.30
2023-03-19T05:48:44.795Z,1.73
2023-03-19T05:51:13.156Z,1.55
2023-03-19T05:53:39.938Z,1.50
2023-03-19T05:56:07.180Z,1.77
2023-03-19T05:58:35.177Z,1.20
2023-03-19T06:01:03.038Z,1.70
2023-03-19T06:03:30.856Z,1.48
2023-03-19T06:05:57.879Z,1.63
2023-03-19T06:08:25.105Z,1.77
2023-03-19T06:10:53.616Z,1.60
2023-03-19T06:13:20.555Z,1.83
2023-03-19T06:15:49.205Z,1.63
2023-03-19T06:18:16.857Z,1.67
2023-03-19T06:20:46.746Z,1.50
2023-03-19T06:23:16.333Z,1.50
2023-03-19T06:25:45.486Z,1.90
2023-03-19T06:28:13.758Z,1.90
2023-03-19T06:30:40.915Z,1.70
2023-03-19T06:33:07.958Z,1.80
2023-03-19T06:35:35.171Z,1.90
2023-03-19T06:38:01.862Z,1.85
2023-03-19T06:40:28.545Z,1.80
2023-03-19T06:42:55.289Z,1.65
2023-03-19T06:45:22.410Z,1.88
2023-03-19T06:47:50.130Z,2.25
2023-03-19T06:50:18.120Z,3.10
2023-03-19T06:52:45.613Z,1.95
2023-03-19T06:55:12.892Z,2.30
2023-03-19T06:57:39.841Z,2.00
2023-03-19T07:00:07.568Z,2.10
2023-03-19T07:02:36.330Z,2.10
2023-03-19T07:05:03.995Z,1.98
2023-03-19T07:07:31.629Z,2.65
2023-03-19T07:09:59.998Z,2.17
2023-03-19T07:12:29.584Z,2.65
2023-03-19T07:14:56.818Z,2.60
2023-03-19T07:17:25.709Z,2.72
2023-03-19T07:19:57.344Z,2.78
2023-03-19T07:22:24.406Z,2.25
2023-03-19T07:24:51.630Z,2.70
2023-03-19T07:27:18.359Z,2.78
2023-03-19T07:29:45.122Z,2.50
2023-03-19T07:32:12.016Z,2.40
2023-03-19T07:34:38.953Z,2.60
2023-03-19T07:37:06.221Z,2.80
2023-03-19T07:39:34.132Z,2.30
2023-03-19T07:42:00.835Z,2.47
2023-03-19T07:44:27.559Z,2.55
2023-03-19T07:46:55.643Z,3.03
2023-03-19T07:49:25.784Z,3.10
2023-03-19T07:51:52.541Z,3.15
2023-03-19T07:54:21.542Z,2.85
2023-03-19T07:56:49.719Z,3.03
2023-03-19T07:59:17.052Z,2.83
2023-03-19T08:01:43.847Z,2.80
2023-03-19T08:04:11.802Z,2.70
2023-03-19T08:06:40.158Z,2.83
2023-03-19T08:09:07.064Z,2.67
2023-03-19T08:11:33.872Z,2.90
2023-03-19T08:14:00.747Z,3.15
2023-03-19T08:16:27.679Z,3.85
2023-03-19T08:18:55.991Z,3.55
2023-03-19T08:21:25.609Z,4.90
2023-03-19T08:23:53.474Z,3.40
2023-03-19T08:26:20.276Z,3.53
2023-03-19T08:28:46.977Z,3.05
2023-03-19T08:31:14.559Z,2.80
2023-03-19T08:33:41.385Z,3.15
2023-03-19T08:36:11.106Z,2.83
2023-03-19T08:38:38.789Z,3.10
2023-03-19T08:41:06.337Z,3.38
2023-03-19T08:43:34.648Z,3.03
2023-03-19T08:46:01.847Z,2.70
2023-03-19T08:48:29.337Z,2.72
2023-03-19T08:50:57.968Z,3.05
2023-03-19T08:53:25.527Z,3.20
2023-03-19T08:55:53.762Z,3.53
2023-03-19T08:58:21.097Z,3.15
2023-03-19T09:00:48.922Z,3.88
2023-03-19T09:03:17.466Z,3.65
2023-03-19T09:05:45.503Z,2.90
2023-03-19T09:08:12.613Z,3.40
2023-03-19T09:10:40.070Z,3.35
2023-03-19T09:13:08.569Z,3.33
2023-03-19T09:15:36.822Z,3.75
2023-03-19T09:18:03.634Z,3.53
2023-03-19T09:20:30.351Z,3.30
2023-03-19T09:22:57.085Z,3.08
2023-03-19T09:25:23.755Z,3.08
2023-03-19T09:27:51.605Z,3.33
2023-03-19T09:30:18.357Z,3.08
2023-03-19T09:32:45.309Z,3.13
2023-03-19T09:35:12.040Z,3.03
2023-03-19T09:37:38.844Z,2.63
2023-03-19T09:40:06.592Z,2.17
2023-03-19T09:42:45.012Z,2.50
2023-03-19T09:45:16.068Z,2.00
2023-03-19T09:47:43.976Z,4.20
2023-03-19T09:50:18.366Z,12.35
2023-03-19T09:52:49.959Z,3.80
2023-03-19T09:55:28.410Z,3.03
2023-03-19T09:57:57.458Z,2.30
2023-03-19T10:00:32.958Z,2.20
2023-03-19T10:03:21.670Z,2.28
2023-03-19T10:06:22.267Z,1.85
2023-03-19T10:09:27.027Z,2.00
2023-03-19T10:12:42.018Z,2.15
2023-03-19T10:15:17.427Z,1.73
2023-03-19T10:17:54.951Z,2.20
2023-03-19T10:21:05.945Z,1.90
2023-03-19T10:23:33.330Z,1.70
2023-03-19T10:26:04.136Z,2.05
2023-03-19T10:28:31.249Z,1.63
2023-03-19T10:31:14.844Z,1.42
2023-03-19T10:33:46.126Z,1.10
2023-03-19T10:36:15.692Z,1.45
2023-03-19T10:38:44.491Z,1.52
2023-03-19T10:41:49.341Z,1.20
2023-03-19T10:44:34.989Z,1.40
2023-03-19T10:47:15.021Z,2.40
2023-03-19T10:49:42.685Z,1.42
2023-03-19T10:52:18.744Z,1.20
2023-03-19T10:54:46.532Z,1.08
2023-03-19T10:57:26.716Z,1.15
2023-03-19T10:59:54.000Z,1.10
2023-03-19T11:02:23.631Z,1.10
2023-03-19T11:05:14.171Z,1.40
2023-03-19T11:07:41.089Z,1.40
2023-03-19T11:10:20.158Z,1.27
2023-03-19T11:13:03.700Z,0.90
2023-03-19T11:15:36.923Z,1.07
2023-03-19T11:18:20.565Z,1.08
2023-03-19T11:20:58.602Z,0.90
2023-03-19T11:23:30.331Z,0.77
2023-03-19T11:26:01.883Z,1.08
2023-03-19T11:28:33.834Z,1.15
2023-03-19T11:31:15.234Z,1.10
2023-03-19T11:34:08.638Z,0.80
2023-03-19T11:37:05.880Z,0.82
2023-03-19T11:39:55.960Z,0.70
2023-03-19T11:42:45.872Z,2.50
2023-03-19T11:45:20.805Z,0.80
2023-03-19T11:48:13.016Z,0.70
2023-03-19T11:50:59.009Z,0.90
2023-03-19T11:53:39.300Z,1.20
2023-03-19T11:56:21.985Z,0.77
2023-03-19T11:58:54.908Z,0.63
2023-03-19T12:01:39.168Z,1.00
2023-03-19T12:06:54.168Z,0.80
2023-03-19T12:09:32.495Z,0.60
2023-03-19T12:12:18.692Z,0.50
2023-03-19T12:14:53.970Z,0.70
2023-03-19T12:17:59.477Z,0.70
2023-03-19T12:20:36.185Z,1.30
2023-03-19T12:23:53.341Z,1.20
2023-03-19T12:26:38.165Z,0.60
2023-03-19T12:29:34.792Z,0.52
2023-03-19T12:32:16.328Z,0.80
2023-03-19T12:34:52.051Z,0.80
2023-03-19T12:37:28.251Z,0.80
2023-03-19T12:40:15.224Z,0.60
2023-03-19T12:42:43.728Z,0.40
2023-03-19T12:45:43.069Z,0.55
2023-03-19T12:48:16.824Z,0.50
2023-03-19T12:50:50.208Z,0.60
2023-03-19T12:53:35.630Z,1.00
2023-03-19T12:56:14.282Z,0.90
2023-03-19T12:59:01.513Z,0.80
2023-03-19T13:01:39.276Z,1.10
2023-03-19T13:04:15.367Z,1.20
2023-03-19T13:06:45.483Z,1.35
2023-03-19T13:09:38.024Z,1.50
2023-03-19T13:12:20.620Z,1.17
2023-03-19T13:14:56.175Z,1.30
2023-03-19T13:17:30.851Z,1.17
2023-03-19T13:20:01.495Z,1.10
2023-03-19T13:22:34.162Z,0.80
2023-03-19T13:25:02.997Z,0.90
2023-03-19T13:27:35.705Z,0.55
2023-03-19T13:30:19.027Z,0.70
2023-03-19T13:32:50.241Z,0.50
2023-03-19T13:35:38.920Z,0.70
2023-03-19T13:38:15.498Z,0.70
2023-03-19T13:40:51.485Z,0.52
2023-03-19T13:43:30.346Z,0.57
2023-03-19T13:46:12.320Z,0.50
2023-03-19T13:48:45.252Z,0.68
2023-03-19T13:51:25.774Z,0.75
2023-03-19T13:53:59.309Z,0.90
2023-03-19T13:56:30.267Z,0.70
2023-03-19T13:59:27.323Z,0.60
2023-03-19T14:01:56.344Z,0.50
2023-03-19T14:04:31.133Z,0.60
2023-03-19T14:07:19.637Z,0.50
2023-03-19T14:09:51.782Z,0.50
2023-03-19T14:12:18.431Z,0.60
2023-03-19T14:14:50.480Z,0.63
2023-03-19T14:17:21.272Z,0.40
2023-03-19T14:19:50.792Z,0.60
2023-03-19T14:22:21.943Z,0.63
2023-03-19T14:25:21.903Z,0.52
2023-03-19T14:27:59.303Z,0.60
2023-03-19T14:30:48.066Z,0.52
2023-03-19T14:33:22.771Z,0.50
2023-03-19T14:35:51.622Z,0.40
2023-03-19T14:38:34.906Z,0.50
2023-03-19T14:41:04.130Z,0.50
2023-03-19T14:43:45.618Z,0.93
2023-03-19T14:46:47.737Z,0.63
2023-03-19T14:49:54.637Z,0.60
2023-03-19T14:52:29.174Z,0.55
2023-03-19T14:55:03.576Z,0.63
2023-03-19T14:57:35.404Z,0.50
2023-03-19T15:00:06.891Z,0.50
2023-03-19T15:02:43.825Z,0.40
2023-03-19T15:05:26.727Z,0.35
2023-03-19T15:07:58.379Z,0.50
2023-03-19T15:10:29.005Z,0.60
2023-03-19T15:13:28.649Z,0.50
2023-03-19T15:16:20.541Z,0.50
2023-03-19T15:18:47.360Z,0.52
2023-03-19T15:21:15.841Z,0.40
2023-03-19T15:23:48.442Z,0.57
2023-03-19T15:26:18.516Z,0.52
2023-03-19T15:28:53.805Z,0.47
2023-03-19T15:31:37.504Z,0.40
2023-03-19T15:34:24.535Z,0.50
2023-03-19T15:37:06.345Z,0.65
2023-03-19T15:39:37.570Z,0.50
2023-03-19T15:42:05.568Z,0.60
2023-03-19T15:44:46.988Z,0.47
2023-03-19T15:47:23.686Z,0.60
2023-03-19T15:50:01.425Z,0.50
2023-03-19T15:52:36.300Z,0.40
2023-03-19T15:55:03.992Z,0.43
2023-03-19T15:57:31.229Z,4.30
2023-03-19T16:00:00.532Z,0.65
2023-03-19T16:02:30.779Z,0.52
2023-03-19T16:07:45.246Z,0.88
2023-03-19T16:10:37.141Z,0.52
2023-03-19T16:13:23.475Z,0.55
2023-03-19T16:16:23.271Z,1.00
2023-03-19T16:18:52.139Z,1.40
2023-03-19T16:21:29.979Z,1.42
2023-03-19T16:24:21.146Z,2.08
2023-03-19T16:26:48.670Z,2.08
2023-03-19T16:29:32.023Z,2.08
2023-03-19T16:32:20.924Z,2.53
2023-03-19T16:35:04.862Z,2.30
2023-03-19T16:37:37.932Z,2.47
2023-03-19T16:40:15.660Z,2.80
2023-03-19T16:42:48.103Z,2.22
2023-03-19T16:45:14.854Z,3.17
2023-03-19T16:47:42.975Z,3.40
2023-03-19T16:50:20.128Z,3.00
2023-03-19T16:52:48.422Z,3.10
2023-03-19T16:55:38.734Z,4.22
2023-03-19T16:58:18.256Z,3.30
2023-03-19T17:00:46.110Z,3.45
2023-03-19T17:03:15.675Z,2.72
2023-03-19T17:05:43.581Z,2.13
2023-03-19T17:08:12.374Z,1.83
2023-03-19T17:10:45.741Z,1.50
2023-03-19T17:13:28.414Z,1.50
2023-03-19T17:16:03.978Z,3.03
2023-03-19T17:18:35.112Z,1.88
2023-03-19T17:21:13.125Z,1.45
2023-03-19T17:23:40.360Z,2.00
2023-03-19T17:26:22.756Z,1.40
2023-03-19T17:28:50.767Z,1.58
2023-03-19T17:31:28.090Z,1.52
2023-03-19T17:34:03.319Z,1.30
2023-03-19T17:36:33.721Z,1.30
2023-03-19T17:39:00.437Z,1.10
2023-03-19T17:41:28.359Z,1.40
2023-03-19T17:43:57.584Z,1.23
2023-03-19T17:46:26.345Z,2.00
2023-03-19T17:48:53.937Z,2.10
2023-03-19T17:51:23.148Z,1.75
2023-03-19T17:53:54.203Z,1.75
2023-03-19T17:56:25.640Z,1.63
2023-03-19T17:58:52.710Z,1.95
2023-03-19T18:01:24.104Z,3.40
2023-03-19T18:03:53.358Z,5.80
2023-03-19T18:06:23.060Z,4.78
2023-03-19T18:08:50.928Z,3.15
2023-03-19T18:11:17.989Z,5.65
2023-03-19T18:13:44.778Z,7.90
2023-03-19T18:16:30.073Z,5.50
2023-03-19T18:19:02.850Z,6.38
2023-03-19T18:21:31.815Z,8.15
2023-03-19T18:23:58.757Z,12.98
2023-03-19T18:26:26.178Z,13.27
2023-03-19T18:28:53.263Z,9.18
2023-03-19T18:31:25.800Z,7.15
2023-03-19T18:34:01.247Z,8.55
2023-03-19T18:36:31.727Z,8.40
2023-03-19T18:38:58.833Z,12.77
2023-03-19T18:41:31.960Z,11.68
2023-03-19T18:44:01.530Z,13.25
2023-03-19T18:46:30.900Z,11.20
2023-03-19T18:49:05.071Z,6.20
2023-03-19T18:51:32.207Z,2.80
2023-03-19T18:54:00.259Z,3.10
2023-03-19T18:56:32.059Z,3.90
2023-03-19T18:59:01.683Z,3.20
2023-03-19T19:01:28.954Z,2.63
2023-03-19T19:03:57.628Z,2.50
2023-03-19T19:06:40.280Z,2.47
2023-03-19T19:09:14.093Z,2.28
2023-03-19T19:11:44.505Z,3.00
2023-03-19T19:14:23.260Z,3.58
2023-03-19T19:16:51.292Z,3.50
2023-03-19T19:19:22.587Z,3.50
2023-03-19T19:21:50.900Z,3.33
2023-03-19T19:24:19.364Z,3.78
2023-03-19T19:26:48.416Z,3.53
2023-03-19T19:29:26.346Z,3.90
2023-03-19T19:31:54.312Z,3.42
2023-03-19T19:34:21.472Z,3.78
2023-03-19T19:36:48.408Z,3.78
2023-03-19T19:39:15.874Z,2.92
2023-03-19T19:41:43.820Z,2.90
2023-03-19T19:44:21.422Z,2.60
2023-03-19T19:46:48.206Z,3.13
2023-03-19T19:49:15.534Z,2.85
2023-03-19T19:51:42.530Z,2.80
2023-03-19T19:54:10.862Z,2.65
2023-03-19T19:56:39.131Z,4.85
2023-03-19T19:59:07.723Z,8.02
2023-03-19T20:01:35.835Z,6.13
2023-03-19T20:04:04.220Z,3.80
2023-03-19T20:06:31.534Z,3.42
2023-03-19T20:08:58.189Z,5.05
2023-03-19T20:11:26.850Z,6.30
2023-03-19T20:13:55.826Z,6.10
2023-03-19T20:16:26.438Z,4.63
2023-03-19T20:18:55.052Z,3.97
2023-03-19T20:21:22.643Z,3.90
2023-03-19T20:23:53.060Z,4.40
2023-03-19T20:26:23.301Z,4.82
2023-03-19T20:28:52.071Z,8.43
2023-03-19T20:31:31.757Z,9.18
2023-03-19T20:34:00.359Z,6.75
2023-03-19T20:36:27.079Z,8.05
2023-03-19T20:38:54.108Z,8.45
2023-03-19T20:41:27.157Z,8.30
2023-03-19T20:43:54.840Z,7.78
2023-03-19T20:46:23.244Z,9.52
2023-03-19T20:48:50.679Z,10.30
2023-03-19T20:51:21.481Z,7.65
2023-03-19T20:53:50.981Z,7.30
2023-03-19T20:56:21.040Z,6.60
2023-03-19T20:58:48.211Z,5.88
2023-03-19T21:01:18.500Z,4.60
2023-03-19T21:03:45.383Z,4.18
2023-03-19T21:06:22.723Z,4.15
2023-03-19T21:08:56.656Z,4.15
2023-03-19T21:11:32.867Z,4.85
2023-03-19T21:13:59.596Z,3.67
2023-03-19T21:16:27.417Z,4.18
2023-03-19T21:18:56.165Z,4.13
2023-03-19T21:21:46.090Z,4.00
2023-03-19T21:24:18.012Z,4.85
2023-03-19T21:26:46.316Z,4.07
2023-03-19T21:29:23.997Z,4.63
2023-03-19T21:31:56.880Z,4.70
2023-03-19T21:34:25.033Z,4.75
2023-03-19T21:36:53.162Z,6.80
2023-03-19T21:39:19.838Z,7.47
2023-03-19T21:41:46.819Z,8.73
2023-03-19T21:44:20.181Z,10.50
2023-03-19T21:46:48.204Z,11.45
2023-03-19T21:49:16.779Z,13.65
2023-03-19T21:51:47.170Z,15.90
2023-03-19T21:54:15.777Z,16.42
2023-03-19T21:56:46.117Z,16.00
2023-03-19T21:59:22.742Z,18.17
2023-03-19T22:01:49.563Z,19.13
2023-03-19T22:04:16.365Z,18.67
2023-03-19T22:06:43.316Z,20.85
2023-03-19T22:09:11.857Z,20.73
2023-03-19T22:11:39.755Z,20.75
2023-03-19T22:14:19.822Z,23.63
2023-03-19T22:16:53.973Z,22.98
2023-03-19T22:19:21.606Z,23.27
2023-03-19T22:21:49.481Z,21.98
2023-03-19T22:24:16.231Z,26.50
2023-03-19T22:26:46.917Z,26.00
2023-03-19T22:29:18.342Z,26.15
2023-03-19T22:31:51.021Z,27.45
2023-03-19T22:34:21.502Z,29.00
2023-03-19T22:36:48.331Z,28.40
2023-03-19T22:39:16.200Z,27.65
2023-03-19T22:41:45.791Z,27.95
2023-03-19T22:44:33.052Z,28.23
2023-03-19T22:47:01.813Z,27.75
2023-03-19T22:49:29.743Z,30.70
2023-03-19T22:51:57.960Z,31.05
2023-03-19T22:54:26.526Z,30.90
2023-03-19T22:56:53.282Z,30.55
2023-03-19T22:59:20.678Z,30.38
2023-03-19T23:01:48.113Z,30.63
2023-03-19T23:04:17.737Z,30.75
2023-03-19T23:06:45.328Z,29.92
2023-03-19T23:09:26.151Z,30.33
2023-03-19T23:11:53.869Z,30.70
2023-03-19T23:14:29.731Z,30.40
2023-03-19T23:19:29.136Z,30.92
2023-03-19T23:21:57.886Z,29.02
2023-03-19T23:24:25.529Z,30.60
2023-03-19T23:26:57.148Z,30.70
2023-03-19T23:29:32.075Z,28.50
2023-03-19T23:31:58.762Z,30.45
2023-03-19T23:34:26.713Z,30.15
2023-03-19T23:36:53.573Z,29.80
2023-03-19T23:39:21.529Z,31.50
2023-03-19T23:41:52.997Z,30.10
2023-03-19T23:44:22.031Z,29.88
2023-03-19T23:46:50.862Z,29.20
2023-03-19T23:49:28.759Z,29.30
2023-03-19T23:51:56.668Z,28.67
2023-03-19T23:54:34.233Z,30.33
2023-03-19T23:57:07.421Z,28.38
2023-03-19T23:59:37.107Z,28.57
